Time;durP1;ratioP1;P1;durP2;ratioP2;P2;SDS_P1;SDS_P2;PMS_P1;PMS_P2;Temp;Humidity;BMP_temperature;BMP_pressure;BME280_temperature;BME280_humidity;BME280_pressure;Samples;Min_cycle;Max_cycle;Signal;HPM_P1;HPM_P2
2021/06/21 00:01:20;;;;;;;9.05;1.92;;;;;;;16.72;96.61;97904.13;4971895;28;20038;-70
2021/06/21 00:03:47;;;;;;;7.35;1.58;;;;;;;16.86;96.68;97917.03;4972951;28;20037;-70
2021/06/21 00:06:13;;;;;;;6.53;2.03;;;;;;;16.76;96.72;97910.69;4972256;28;20023;-70
2021/06/21 00:08:38;;;;;;;9.43;1.48;;;;;;;16.93;96.78;97937.88;4972819;28;20061;-70
2021/06/21 00:11:04;;;;;;;11.80;2.30;;;;;;;16.92;96.58;97947.13;4972435;28;20023;-70
2021/06/21 00:13:29;;;;;;;9.63;1.88;;;;;;;16.78;96.66;97908.53;4972566;28;20037;-70
2021/06/21 00:15:55;;;;;;;9.05;1.42;;;;;;;16.98;95.95;97938.72;4980381;28;20394;-70
2021/06/21 00:18:20;;;;;;;9.27;1.33;;;;;;;16.94;95.96;97944.97;4964896;28;20039;-70
2021/06/21 00:20:47;;;;;;;7.20;1.80;;;;;;;16.94;95.74;97939.50;4976427;28;20034;-70
2021/06/21 00:23:12;;;;;;;12.18;1.20;;;;;;;16.97;95.86;97926.09;4966801;28;20027;-70
2021/06/21 00:25:38;;;;;;;13.60;1.77;;;;;;;16.83;95.44;97911.31;4974963;28;20061;-70
2021/06/21 00:28:03;;;;;;;7.60;1.35;;;;;;;17.05;95.55;97939.25;4976524;28;20031;-70
2021/06/21 00:30:28;;;;;;;6.20;1.38;;;;;;;17.02;95.28;97908.94;4976802;28;20089;-70
2021/06/21 00:32:55;;;;;;;10.40;1.30;;;;;;;17.04;94.25;97928.63;4976108;28;20026;-70
2021/06/21 00:35:21;;;;;;;5.68;1.23;;;;;;;17.05;94.45;97930.25;4976024;28;20453;-70
2021/06/21 00:37:47;;;;;;;9.70;1.50;;;;;;;16.95;93.80;97922.00;4976593;28;20030;-70
2021/06/21 00:40:13;;;;;;;10.25;1.23;;;;;;;17.11;93.89;97955.69;4976714;28;20507;-71
2021/06/21 00:42:43;;;;;;;6.22;1.40;;;;;;;16.90;94.34;97911.03;4975261;28;20074;-70
2021/06/21 00:45:09;;;;;;;7.63;1.40;;;;;;;17.01;94.29;97918.22;4964428;28;20111;-70
2021/06/21 00:47:34;;;;;;;7.78;1.10;;;;;;;17.11;95.41;97945.59;4975537;28;20069;-70
2021/06/21 00:49:59;;;;;;;6.50;1.30;;;;;;;17.04;94.77;97909.47;4974719;28;20474;-70
2021/06/21 00:52:25;;;;;;;9.85;1.30;;;;;;;16.83;95.05;97894.91;4975841;28;20031;-70
2021/06/21 00:55:00;;;;;;;10.73;1.55;;;;;;;16.94;94.96;97917.63;4975607;28;20548;-70
2021/06/21 00:57:34;;;;;;;12.38;1.33;;;;;;;16.88;95.68;97910.50;4975025;28;20018;-70
2021/06/21 01:00:04;;;;;;;6.53;1.40;;;;;;;17.05;95.57;97916.59;4976153;28;20513;-70
2021/06/21 01:02:29;;;;;;;6.07;1.35;;;;;;;16.98;95.46;97935.97;4973668;28;20025;-70
2021/06/21 01:04:56;;;;;;;9.70;1.30;;;;;;;16.99;95.15;97947.72;4975588;28;20026;-70
2021/06/21 01:07:22;;;;;;;8.80;1.23;;;;;;;16.82;95.68;97909.63;4975566;28;20509;-70
2021/06/21 01:09:49;;;;;;;9.60;1.70;;;;;;;16.84;95.33;97929.31;4975950;28;20081;-70
2021/06/21 01:12:34;;;;;;;5.32;1.20;;;;;;;16.80;95.81;97930.97;4975162;28;20118;-70
2021/06/21 01:15:08;;;;;;;9.52;1.23;;;;;;;16.81;96.13;97949.81;4973169;28;20109;-71
2021/06/21 01:17:44;;;;;;;6.53;1.00;;;;;;;16.81;96.08;97955.25;4975723;28;20051;-71
2021/06/21 01:20:27;;;;;;;7.18;1.38;;;;;;;16.81;96.05;97952.53;4969072;28;20027;-70
2021/06/21 01:23:11;;;;;;;14.13;1.48;;;;;;;16.78;95.58;97942.13;4989912;28;20489;-70
2021/06/21 01:25:48;;;;;;;9.32;1.27;;;;;;;16.81;95.95;97929.88;4975945;28;20445;-70
2021/06/21 01:28:20;;;;;;;6.70;1.50;;;;;;;16.84;96.45;97918.41;4972054;28;20046;-70
2021/06/21 01:31:01;;;;;;;11.00;1.33;;;;;;;16.81;96.86;97927.94;4964294;28;20022;-70
2021/06/21 01:33:27;;;;;;;8.48;1.63;;;;;;;16.80;96.67;97931.78;4975114;28;20114;-71
2021/06/21 01:36:03;;;;;;;8.75;1.33;;;;;;;16.89;95.42;97923.06;4975669;28;20085;-70
2021/06/21 01:38:34;;;;;;;7.32;1.40;;;;;;;16.90;95.19;97911.88;4975484;28;20487;-70
2021/06/21 01:41:03;;;;;;;6.68;1.10;;;;;;;16.94;95.51;97918.44;4964383;28;20037;-70
2021/06/21 01:43:30;;;;;;;;;;;;;;;16.91;94.93;97926.38;4958315;28;20031;-70
2021/06/21 01:45:59;;;;;;;13.65;1.80;;;;;;;16.85;95.19;97925.53;4975385;28;19921;-70
2021/06/21 01:48:26;;;;;;;6.50;1.40;;;;;;;16.82;95.70;97935.06;4975522;28;20023;-70
2021/06/21 01:50:56;;;;;;;9.00;1.38;;;;;;;16.70;95.80;97896.19;4975283;28;20034;-70
2021/06/21 01:53:24;;;;;;;10.68;1.35;;;;;;;16.74;96.00;97921.88;4975537;28;20034;-70
2021/06/21 01:56:07;;;;;;;10.85;1.33;;;;;;;16.74;96.83;97924.63;4975088;28;20027;-71
2021/06/21 01:58:36;;;;;;;11.25;1.45;;;;;;;16.77;96.85;97921.38;4974509;28;20081;-71
2021/06/21 02:01:03;;;;;;;9.63;1.20;;;;;;;16.72;95.81;97910.41;4974243;28;20022;-71
2021/06/21 02:03:30;;;;;;;8.02;1.45;;;;;;;16.67;95.58;97909.56;4973933;28;20069;-71
2021/06/21 02:05:57;;;;;;;9.15;1.30;;;;;;;16.76;96.12;97927.88;4974759;28;20110;-71
2021/06/21 02:08:25;;;;;;;9.38;1.50;;;;;;;16.80;95.49;97929.03;4974704;28;20023;-71
2021/06/21 02:10:52;;;;;;;8.75;1.15;;;;;;;16.80;95.70;97925.50;4974799;28;20027;-71
2021/06/21 02:13:19;;;;;;;5.78;1.15;;;;;;;16.76;94.82;97916.97;4973805;28;20027;-71
2021/06/21 02:15:45;;;;;;;13.07;1.42;;;;;;;16.68;95.21;97909.28;4973046;28;20117;-71
2021/06/21 02:18:12;;;;;;;13.43;1.67;;;;;;;16.74;95.27;97927.34;4974436;28;20057;-71
2021/06/21 02:20:39;;;;;;;11.75;1.30;;;;;;;16.73;95.04;97933.88;4966608;28;20027;-71
2021/06/21 02:23:05;;;;;;;12.57;1.40;;;;;;;16.68;94.98;97939.31;4958535;28;20110;-72
2021/06/21 02:25:31;;;;;;;6.93;1.27;;;;;;;16.62;95.22;97938.47;4972159;28;20027;-71
2021/06/21 02:27:57;;;;;;;6.05;1.40;;;;;;;16.32;95.77;97905.50;4974555;28;20041;-71
2021/06/21 02:30:23;;;;;;;3.63;1.05;;;;;;;16.51;96.05;97938.69;4974224;28;20042;-71
2021/06/21 02:32:48;;;;;;;8.30;1.77;;;;;;;16.53;96.23;97945.53;4974389;28;20031;-71
2021/06/21 02:35:15;;;;;;;9.73;1.70;;;;;;;16.56;96.21;97941.44;4969841;28;20480;-71
2021/06/21 02:37:42;;;;;;;5.38;1.40;;;;;;;16.46;96.55;97936.72;4974574;28;20031;-71
2021/06/21 02:40:12;;;;;;;8.45;2.13;;;;;;;16.56;96.32;97963.28;4974014;28;20065;-71
2021/06/21 02:42:37;;;;;;;;;;;;;;;16.53;96.31;97964.63;4974489;28;20027;-71
2021/06/21 02:45:04;;;;;;;12.05;2.17;;;;;;;16.42;96.57;97950.06;4974157;28;19937;-71
2021/06/21 02:47:29;;;;;;;11.85;1.42;;;;;;;16.57;96.24;97948.53;4973577;28;20142;-71
2021/06/21 02:49:55;;;;;;;12.13;1.95;;;;;;;16.60;95.77;97948.81;4974500;28;20086;-71
2021/06/21 02:53:02;;;;;;;7.05;1.75;;;;;;;16.56;95.43;97933.25;4972619;28;20034;-71
2021/06/21 02:55:58;;;;;;;7.43;1.88;;;;;;;16.60;95.66;97945.28;4973472;28;20078;-71
2021/06/21 02:58:53;;;;;;;10.10;1.55;;;;;;;16.59;95.32;97941.72;4971929;28;20114;-71
2021/06/21 03:01:18;;;;;;;17.63;2.15;;;;;;;16.58;95.46;97937.38;4973023;28;20035;-71
2021/06/21 03:03:54;;;;;;;10.52;1.30;;;;;;;16.63;95.35;97940.09;4974679;28;20030;-71
2021/06/21 03:06:21;;;;;;;7.85;1.40;;;;;;;16.72;95.16;97948.63;4974714;28;20106;-71
2021/06/21 03:08:48;;;;;;;10.73;1.75;;;;;;;16.49;94.77;97908.91;4976627;28;20515;-72
2021/06/21 03:11:15;;;;;;;5.25;1.70;;;;;;;16.70;94.38;97933.59;4975976;28;20030;-71
2021/06/21 03:13:44;;;;;;;10.70;2.10;;;;;;;16.64;93.95;97928.09;4975728;28;20049;-71
2021/06/21 03:16:10;;;;;;;9.38;1.40;;;;;;;16.79;94.05;97935.59;4976199;28;20552;-71
2021/06/21 03:18:36;;;;;;;11.45;1.73;;;;;;;16.59;93.15;97897.22;4976587;28;20069;-71
2021/06/21 03:21:02;;;;;;;10.30;1.95;;;;;;;16.88;93.44;97944.13;4976858;28;20089;-71
2021/06/21 03:23:32;;;;;;;7.53;1.73;;;;;;;16.95;92.46;97954.78;4955864;28;20106;-71
2021/06/21 03:26:00;;;;;;;13.95;1.65;;;;;;;16.85;92.54;97948.19;4970667;28;20029;-70
2021/06/21 03:28:27;;;;;;;16.40;1.80;;;;;;;16.87;92.54;97953.38;4973235;28;20030;-70
2021/06/21 03:30:57;;;;;;;9.93;2.15;;;;;;;16.91;92.48;97957.25;4970187;28;20373;-73
2021/06/21 03:33:22;;;;;;;12.35;1.95;;;;;;;16.97;90.55;97958.91;4969721;28;20025;-71
2021/06/21 03:35:48;;;;;;;10.48;1.92;;;;;;;17.04;90.40;97954.03;4970674;28;20023;-62
2021/06/21 03:38:18;;;;;;;11.00;1.85;;;;;;;17.08;91.00;97951.56;4979284;28;20030;-68
2021/06/21 03:40:45;;;;;;;9.52;1.88;;;;;;;17.08;90.90;97940.63;4993025;28;20022;-67
2021/06/21 03:43:11;;;;;;;7.18;1.60;;;;;;;17.18;90.64;97943.41;4992663;28;20096;-67
2021/06/21 03:45:36;;;;;;;18.88;1.50;;;;;;;17.29;88.80;97938.81;4983280;28;20432;-67
2021/06/21 03:48:03;;;;;;;14.13;1.50;;;;;;;17.41;87.82;97944.06;4972619;28;20033;-66
2021/06/21 03:50:28;;;;;;;8.98;1.85;;;;;;;17.47;87.18;97934.75;4973129;28;20057;-67
2021/06/21 03:52:53;;;;;;;5.78;1.42;;;;;;;17.22;87.04;97910.91;4978540;28;20070;-67
2021/06/21 03:55:19;;;;;;;11.85;1.50;;;;;;;17.47;87.00;97948.44;4980728;28;20082;-67
2021/06/21 03:57:46;;;;;;;8.82;1.40;;;;;;;17.43;86.42;97961.84;4963057;28;20421;-69
2021/06/21 04:00:32;;;;;;;5.50;1.48;;;;;;;17.40;86.95;97973.31;4971571;28;20608;-66
2021/06/21 04:02:59;;;;;;;10.63;1.95;;;;;;;17.40;85.56;97976.06;4971446;28;20037;-70
2021/06/21 04:05:26;;;;;;;12.85;1.52;;;;;;;17.51;84.32;97993.31;4986716;28;20070;-68
2021/06/21 04:07:52;;;;;;;12.10;1.45;;;;;;;17.67;82.86;97981.31;4972715;28;20034;-73
2021/06/21 04:10:20;;;;;;;9.60;1.20;;;;;;;17.82;83.57;97977.03;4978469;28;20456;-72
2021/06/21 04:12:48;;;;;;;9.33;1.70;;;;;;;17.71;84.24;97949.63;4967566;28;20097;-71
2021/06/21 04:15:14;;;;;;;7.55;1.42;;;;;;;17.97;82.63;97977.03;4970619;28;20035;-72
2021/06/21 04:17:41;;;;;;;7.15;1.33;;;;;;;17.91;83.89;97980.84;4965915;28;20096;-67
2021/06/21 04:20:09;;;;;;;11.10;1.50;;;;;;;18.04;83.97;97980.31;4962283;28;20027;-67
2021/06/21 04:22:35;;;;;;;9.33;1.33;;;;;;;18.07;83.16;97979.78;4964629;28;20023;-67
2021/06/21 04:25:00;;;;;;;7.20;1.75;;;;;;;18.19;82.51;97976.78;4967250;28;20058;-68
2021/06/21 04:27:26;;;;;;;6.03;1.48;;;;;;;18.28;82.51;97988.00;4970467;28;20088;-69
2021/06/21 04:29:51;;;;;;;11.48;1.52;;;;;;;18.25;81.52;97962.00;4971336;28;20046;-74
2021/06/21 04:32:17;;;;;;;7.45;1.40;;;;;;;18.38;80.78;97946.94;4972503;28;20097;-72
2021/06/21 04:34:43;;;;;;;8.60;1.40;;;;;;;18.57;79.66;97961.69;4971712;28;20489;-73
2021/06/21 04:37:08;;;;;;;8.98;1.58;;;;;;;18.57;80.33;97961.69;4972464;28;20093;-69
2021/06/21 04:39:33;;;;;;;6.75;1.10;;;;;;;18.59;79.44;97964.16;4968326;28;20026;-69
2021/06/21 04:41:59;;;;;;;7.00;1.27;;;;;;;18.58;79.28;97962.53;4970538;28;20041;-76
2021/06/21 04:44:24;;;;;;;10.02;1.27;;;;;;;18.52;79.38;97978.16;4971866;28;20022;-72
2021/06/21 04:46:49;;;;;;;8.88;1.40;;;;;;;18.46;79.80;97976.50;4971372;28;20031;-75
2021/06/21 04:49:15;;;;;;;7.35;1.48;;;;;;;18.37;79.94;97986.38;4971856;28;20034;-71
2021/06/21 04:51:45;;;;;;;9.90;1.90;;;;;;;18.05;80.94;97961.97;4971154;28;20026;-73
2021/06/21 04:54:10;;;;;;;7.10;1.42;;;;;;;18.11;81.78;97964.47;4959921;28;20038;-75
2021/06/21 04:56:37;;;;;;;8.10;1.58;;;;;;;18.10;82.05;97990.22;4970461;28;20093;-74
2021/06/21 04:59:04;;;;;;;10.57;1.33;;;;;;;18.12;81.97;97984.44;4970511;28;20401;-75
2021/06/21 05:01:30;;;;;;;9.82;1.75;;;;;;;18.14;82.24;97979.53;4971554;28;20026;-67
2021/06/21 05:04:01;;;;;;;8.38;1.40;;;;;;;18.23;81.91;97985.28;4970331;28;20085;-68
2021/06/21 05:06:27;;;;;;;12.00;1.67;;;;;;;18.30;81.71;97955.72;4973031;28;20062;-68
2021/06/21 05:08:53;;;;;;;11.80;1.30;;;;;;;18.49;80.03;97961.44;4975485;28;20211;-65
2021/06/21 05:11:18;;;;;;;12.85;1.70;;;;;;;18.54;79.78;97977.88;4974235;28;20455;-66
2021/06/21 05:13:44;;;;;;;10.90;1.15;;;;;;;18.60;79.92;97977.59;4973257;28;20026;-65
2021/06/21 05:16:10;;;;;;;10.88;1.85;;;;;;;18.60;79.84;97982.25;4974522;28;20018;-66
2021/06/21 05:18:36;;;;;;;13.32;2.17;;;;;;;18.64;80.08;97988.00;4974661;28;20077;-66
2021/06/21 05:21:01;;;;;;;11.57;1.90;;;;;;;18.83;79.42;98000.06;4975514;28;20420;-64
2021/06/21 05:23:26;;;;;;;8.98;1.80;;;;;;;18.78;79.91;97989.09;4975126;28;20026;-70
2021/06/21 05:25:51;;;;;;;7.38;1.58;;;;;;;18.93;78.80;97999.22;4973658;28;20029;-69
2021/06/21 05:28:17;;;;;;;11.63;1.70;;;;;;;18.96;78.68;98001.41;4971032;28;20023;-70
2021/06/21 05:30:42;;;;;;;9.90;1.38;;;;;;;18.87;77.45;98000.34;4974631;28;20027;-70
2021/06/21 05:33:07;;;;;;;8.43;1.67;;;;;;;19.17;77.84;97996.69;4975118;28;20079;-69
2021/06/21 05:35:33;;;;;;;8.65;2.08;;;;;;;19.11;77.04;97984.91;4974154;28;20465;-71
2021/06/21 05:37:58;;;;;;;7.88;1.40;;;;;;;19.21;77.78;97986.81;4984638;28;20034;-72
2021/06/21 05:40:24;;;;;;;10.25;1.42;;;;;;;19.34;76.83;97978.00;4979379;28;20027;-74
2021/06/21 05:42:49;;;;;;;9.02;1.92;;;;;;;19.56;75.25;97998.75;4970837;28;20421;-71
2021/06/21 05:45:16;;;;;;;9.25;1.38;;;;;;;19.69;74.54;97965.22;4974219;28;20030;-68
2021/06/21 05:47:42;;;;;;;8.80;1.45;;;;;;;19.76;73.71;97978.66;4975200;28;20023;-74
2021/06/21 05:50:08;;;;;;;7.45;1.38;;;;;;;19.95;74.58;97992.53;4974942;28;20492;-71
2021/06/21 05:52:33;;;;;;;7.82;1.20;;;;;;;20.13;73.50;97989.09;4972706;28;20054;-72
2021/06/21 05:54:59;;;;;;;15.82;1.90;;;;;;;20.12;73.89;97984.69;4975919;28;20121;-76
2021/06/21 05:57:30;;;;;;;14.13;1.45;;;;;;;20.30;73.41;98003.28;4973364;28;20544;-73
2021/06/21 05:59:56;;;;;;;5.10;1.42;;;;;;;20.14;72.89;98015.44;4974592;28;20049;-73
2021/06/21 06:02:23;;;;;;;9.27;1.52;;;;;;;20.20;73.04;97997.00;4974793;28;20031;-70
2021/06/21 06:04:49;;;;;;;7.72;1.63;;;;;;;20.43;71.77;98017.44;4971721;28;20062;-69
2021/06/21 06:07:15;;;;;;;7.75;1.50;;;;;;;20.35;72.16;98003.19;4974628;28;20041;-74
2021/06/21 06:09:40;;;;;;;6.68;1.10;;;;;;;20.56;72.56;97984.66;4975117;28;20512;-75
2021/06/21 06:12:06;;;;;;;7.60;1.45;;;;;;;20.88;70.97;97985.19;4972347;28;20053;-73
2021/06/21 06:14:32;;;;;;;10.63;1.35;;;;;;;21.05;71.23;98004.00;4973833;28;20093;-73
2021/06/21 06:16:58;;;;;;;8.70;1.25;;;;;;;21.12;69.62;98005.28;4974465;28;20038;-73
2021/06/21 06:19:24;;;;;;;10.95;1.73;;;;;;;21.24;70.24;97999.38;4973369;28;20023;-70
2021/06/21 06:21:49;;;;;;;6.47;1.10;;;;;;;21.34;69.55;97996.50;4973953;28;20377;-74
2021/06/21 06:24:15;;;;;;;7.50;1.33;;;;;;;21.40;69.83;97978.84;4976039;28;20102;-76
2021/06/21 06:26:44;;;;;;;8.27;1.45;;;;;;;21.26;67.69;97991.66;4976047;28;20022;-67
2021/06/21 06:29:19;;;;;;;;;;;;;;;21.33;67.92;97999.56;4973268;28;20030;-71
2021/06/21 06:31:47;;;;;;;10.32;1.42;;;;;;;21.32;67.74;97984.16;4976743;28;19948;-72
2021/06/21 06:34:14;;;;;;;27.70;2.83;;;;;;;21.83;66.96;98005.56;4973467;28;20372;-71
2021/06/21 06:36:39;;;;;;;5.70;1.20;;;;;;;22.04;66.23;98011.59;4969996;28;20467;-71
2021/06/21 06:39:05;;;;;;;8.25;1.42;;;;;;;21.65;67.46;98005.22;4974454;28;20026;-73
2021/06/21 06:41:31;;;;;;;9.05;1.30;;;;;;;21.93;66.35;98016.44;4972981;28;20033;-68
2021/06/21 06:43:56;;;;;;;11.05;1.98;;;;;;;22.38;65.76;98013.31;4974242;28;20023;-67
2021/06/21 06:46:22;;;;;;;8.45;1.58;;;;;;;22.66;64.58;98014.22;4973646;28;20576;-64
2021/06/21 06:48:47;;;;;;;13.27;1.45;;;;;;;22.83;64.05;98020.00;4973501;28;20055;-66
2021/06/21 06:51:13;;;;;;;13.30;1.60;;;;;;;23.29;62.38;98018.34;4969381;28;20030;-68
2021/06/21 06:53:45;;;;;;;13.27;1.60;;;;;;;23.53;62.61;97996.91;4972577;28;20023;-68
2021/06/21 06:58:56;;;;;;;10.52;1.42;;;;;;;24.71;56.18;98025.47;4971552;28;20041;-68
2021/06/21 07:01:22;;;;;;;6.13;0.75;;;;;;;25.67;54.75;98012.09;4973363;28;20472;-68
2021/06/21 07:03:50;;;;;;;7.95;1.40;;;;;;;26.07;52.88;98019.53;4972074;28;20093;-68
2021/06/21 07:06:16;;;;;;;9.05;1.20;;;;;;;26.93;50.69;98024.25;4971727;28;20031;-68
2021/06/21 07:08:41;;;;;;;9.15;1.17;;;;;;;27.66;48.80;98032.53;4972259;28;20181;-68
2021/06/21 07:11:06;;;;;;;8.88;1.45;;;;;;;28.98;45.99;98024.88;4972818;28;20105;-68
2021/06/21 07:13:33;;;;;;;9.50;0.95;;;;;;;29.92;43.74;98010.94;4972726;28;20126;-68
2021/06/21 07:15:58;;;;;;;9.00;1.48;;;;;;;31.06;41.71;98011.88;4972817;28;20397;-68
2021/06/21 07:18:23;;;;;;;6.28;1.13;;;;;;;30.87;41.10;98018.16;4968255;28;20019;-66
2021/06/21 07:20:49;;;;;;;2.60;0.70;;;;;;;32.40;38.68;97997.91;4968823;28;20029;-71
2021/06/21 07:23:14;;;;;;;6.63;1.13;;;;;;;32.45;38.70;97998.44;4986196;28;20034;-71
2021/06/21 07:25:39;;;;;;;8.02;1.40;;;;;;;33.42;37.01;97999.50;4979328;28;20042;-70
2021/06/21 07:28:05;;;;;;;7.07;1.38;;;;;;;33.50;35.96;97995.63;4978305;28;20645;-70
2021/06/21 07:30:30;;;;;;;5.50;0.80;;;;;;;33.81;35.06;97986.13;4974387;28;20037;-68
2021/06/21 07:32:56;;;;;;;5.32;0.85;;;;;;;34.28;34.98;97989.63;4972241;28;20121;-67
2021/06/21 07:35:21;;;;;;;6.72;0.90;;;;;;;35.46;32.80;97996.59;4971767;28;20092;-67
2021/06/21 07:37:46;;;;;;;4.80;0.95;;;;;;;34.57;33.49;97990.81;4968998;28;20028;-70
2021/06/21 07:40:12;;;;;;;5.28;1.00;;;;;;;34.53;33.88;97973.88;4972624;28;20054;-72
2021/06/21 07:42:37;;;;;;;7.22;1.00;;;;;;;35.09;33.74;97991.84;4973000;28;20113;-74
2021/06/21 07:45:04;;;;;;;6.38;1.20;;;;;;;34.38;33.69;97972.13;4972337;28;20385;-68
2021/06/21 07:47:30;;;;;;;4.22;1.02;;;;;;;33.60;35.29;97978.19;4972616;28;20030;-67
2021/06/21 07:49:55;;;;;;;10.00;1.02;;;;;;;33.08;35.86;97988.09;4970544;28;20134;-69
2021/06/21 07:52:21;;;;;;;4.85;0.90;;;;;;;33.44;34.96;97963.50;4966870;28;20023;-69
2021/06/21 07:54:46;;;;;;;4.65;1.42;;;;;;;34.96;33.09;97991.28;5008962;23;20515;-72
2021/06/21 07:57:11;;;;;;;5.95;1.02;;;;;;;34.79;32.06;97981.44;4992699;28;20423;-73
2021/06/21 07:59:37;;;;;;;3.72;1.00;;;;;;;35.06;32.02;97993.38;4991979;28;20014;-75
2021/06/21 08:02:02;;;;;;;8.50;1.27;;;;;;;34.98;32.32;97988.06;4992301;28;20030;-77
2021/06/21 08:04:28;;;;;;;6.88;0.90;;;;;;;34.29;33.38;97991.25;4991357;28;20037;-71
2021/06/21 08:06:54;;;;;;;5.63;1.13;;;;;;;34.98;32.85;97993.69;4988497;28;20042;-67
2021/06/21 08:09:19;;;;;;;3.35;1.00;;;;;;;36.01;31.88;97993.00;4991698;28;20109;-69
2021/06/21 08:11:44;;;;;;;5.88;0.80;;;;;;;36.38;30.72;97984.38;4990946;28;20019;-71
2021/06/21 08:14:09;;;;;;;6.78;1.13;;;;;;;36.12;30.51;97988.28;4990640;28;20038;-74
2021/06/21 08:16:35;;;;;;;5.43;0.90;;;;;;;35.67;30.90;97984.72;4991164;28;20026;-70
2021/06/21 08:19:00;;;;;;;9.98;1.00;;;;;;;34.74;32.23;97981.78;4994234;28;20613;-73
2021/06/21 08:21:26;;;;;;;6.95;0.80;;;;;;;34.00;32.31;97979.59;4991848;28;20027;-75
2021/06/21 08:23:52;;;;;;;7.82;0.80;;;;;;;35.38;30.85;97989.28;4991368;28;20051;-70
2021/06/21 08:26:18;;;;;;;3.95;0.90;;;;;;;35.38;31.31;97984.47;4987635;28;20030;-69
2021/06/21 08:28:43;;;;;;;5.68;1.00;;;;;;;36.17;30.30;97993.53;4989990;28;20026;-70
2021/06/21 08:31:08;;;;;;;5.22;0.85;;;;;;;33.37;33.41;97997.81;4992259;28;20161;-75
2021/06/21 08:33:34;;;;;;;4.20;1.00;;;;;;;35.48;31.01;97995.00;4993898;28;20109;-79
2021/06/21 08:36:01;;;;;;;4.53;1.23;;;;;;;37.18;28.43;97998.38;4989919;28;20027;-70
2021/06/21 08:38:26;;;;;;;4.57;0.60;;;;;;;35.73;29.19;98000.03;4991610;28;20022;-74
2021/06/21 08:40:51;;;;;;;4.00;0.90;;;;;;;32.70;32.49;97998.19;4994514;28;20030;-75
2021/06/21 08:43:17;;;;;;;3.85;0.90;;;;;;;33.86;32.16;97997.03;4993501;28;20060;-70
2021/06/21 08:45:44;;;;;;;2.00;0.80;;;;;;;32.97;33.31;97985.09;4993235;28;20034;-77
2021/06/21 08:48:10;;;;;;;4.30;0.90;;;;;;;34.09;31.45;97988.59;4996642;28;20030;-70
2021/06/21 08:50:38;;;;;;;3.58;1.00;;;;;;;33.50;31.87;97990.03;4996556;28;20110;-76
2021/06/21 08:53:03;;;;;;;5.30;0.80;;;;;;;35.77;29.38;97992.44;4993125;28;20022;-77
2021/06/21 08:55:29;;;;;;;4.20;0.70;;;;;;;35.45;29.85;97994.97;4981943;28;20347;-75
2021/06/21 08:57:54;;;;;;;3.20;1.08;;;;;;;33.70;32.28;98010.44;4994401;28;20117;-71
2021/06/21 09:00:21;;;;;;;4.25;1.02;;;;;;;35.94;29.83;98011.44;4990553;28;20042;-76
2021/06/21 09:02:48;;;;;;;3.70;0.90;;;;;;;33.82;31.54;98005.41;4993465;28;20403;-79
2021/06/21 09:05:14;;;;;;;2.60;0.90;;;;;;;36.87;28.16;98005.53;4996789;28;20050;-70
2021/06/21 09:07:39;;;;;;;5.22;1.23;;;;;;;35.77;28.68;98001.69;4994523;28;20033;-75
2021/06/21 09:10:23;;;;;;;3.42;0.98;;;;;;;36.04;29.50;98009.91;4993110;28;20022;-71
2021/06/21 09:13:00;;;;;;;2.15;1.00;;;;;;;36.48;29.00;98011.00;4988912;28;20022;-70
2021/06/21 09:15:30;;;;;;;5.75;1.08;;;;;;;34.93;30.32;98014.53;4994531;28;20019;-71
2021/06/21 09:17:57;;;;;;;2.88;0.77;;;;;;;35.34;29.12;98006.13;4994664;28;20034;-71
2021/06/21 09:20:22;;;;;;;3.03;1.20;;;;;;;35.28;30.32;98004.88;4993943;28;20547;-71
2021/06/21 09:22:53;;;;;;;4.13;0.80;;;;;;;36.95;29.50;98000.72;4992387;28;20114;-68
2021/06/21 09:25:19;;;;;;;4.13;0.98;;;;;;;36.72;27.97;97993.41;4988229;28;20054;-73
2021/06/21 09:28:01;;;;;;;4.15;0.77;;;;;;;37.04;28.30;97998.34;4988292;28;20033;-73
2021/06/21 09:30:27;;;;;;;5.30;0.73;;;;;;;35.67;29.40;98008.06;4982792;28;20033;-75
2021/06/21 09:32:55;;;;;;;3.70;0.80;;;;;;;36.95;28.71;98000.72;4987015;28;20026;-73
2021/06/21 09:35:29;;;;;;;2.75;0.98;;;;;;;36.88;28.57;97995.06;4986337;28;20027;-74
2021/06/21 09:37:56;;;;;;;6.50;0.98;;;;;;;37.70;27.49;97987.53;4989745;28;20400;-74
2021/06/21 09:40:31;;;;;;;4.60;1.00;;;;;;;36.10;29.94;97985.03;4987470;28;20531;-71
2021/06/21 09:42:58;;;;;;;1.55;0.60;;;;;;;36.36;29.42;97981.94;4984504;28;20038;-69
2021/06/21 09:45:25;;;;;;;2.95;0.70;;;;;;;37.85;26.17;97984.69;4983628;28;20033;-72
2021/06/21 09:47:50;;;;;;;3.15;0.70;;;;;;;37.06;26.62;97993.09;4986425;28;20034;-74
2021/06/21 09:50:21;;;;;;;2.20;0.90;;;;;;;37.08;27.10;98004.00;4987631;28;20030;-77
2021/06/21 09:52:49;;;;;;;1.25;0.60;;;;;;;37.13;26.84;98006.41;4994754;28;20026;-77
2021/06/21 09:55:26;;;;;;;3.10;0.80;;;;;;;36.76;27.09;97999.88;4989298;28;20124;-76
2021/06/21 09:58:02;;;;;;;3.95;1.00;;;;;;;37.21;26.89;98008.84;4990910;28;20472;-70
2021/06/21 10:00:28;;;;;;;2.47;0.80;;;;;;;35.69;29.24;98007.66;4990566;28;20084;-69
2021/06/21 10:03:07;;;;;;;3.10;0.77;;;;;;;35.83;28.91;98006.97;4993549;28;20109;-69
2021/06/21 10:05:32;;;;;;;1.23;0.60;;;;;;;36.34;29.59;98006.06;4994209;28;20045;-70
2021/06/21 10:07:58;;;;;;;1.95;0.70;;;;;;;35.00;29.88;98002.53;4992349;28;20455;-70
2021/06/21 10:10:23;;;;;;;4.80;0.70;;;;;;;34.41;31.73;98010.69;4992535;28;20085;-70
2021/06/21 10:12:49;;;;;;;4.20;0.85;;;;;;;31.07;36.00;98019.06;4994091;28;20075;-70
2021/06/21 10:15:15;;;;;;;4.38;1.10;;;;;;;32.50;34.31;98006.56;4993617;28;20018;-70
2021/06/21 10:17:41;;;;;;;3.08;0.88;;;;;;;34.22;32.13;98009.63;4993903;28;20380;-70
2021/06/21 10:20:08;;;;;;;7.68;1.30;;;;;;;36.11;28.45;98015.63;4991586;28;20040;-70
2021/06/21 10:22:35;;;;;;;4.22;0.90;;;;;;;37.03;27.33;98005.19;4975559;28;20038;-70
2021/06/21 10:25:00;;;;;;;2.03;0.73;;;;;;;36.80;27.89;98002.69;4988214;28;20064;-70
2021/06/21 10:27:27;;;;;;;4.05;0.80;;;;;;;36.66;28.23;98011.91;4994045;28;20500;-70
2021/06/21 10:29:56;;;;;;;3.33;1.13;;;;;;;37.96;26.93;98008.06;4991620;28;20129;-70
2021/06/21 10:32:24;;;;;;;5.13;0.90;;;;;;;37.25;27.47;98000.38;4990280;28;20030;-70
2021/06/21 10:34:49;;;;;;;4.85;0.93;;;;;;;36.95;28.27;98000.72;4989719;28;20472;-70
2021/06/21 10:37:18;;;;;;;3.80;1.10;;;;;;;37.47;27.21;98004.84;4990037;28;20066;-70
2021/06/21 10:39:47;;;;;;;2.78;1.00;;;;;;;37.70;26.63;98007.28;4989535;28;20058;-70
2021/06/21 10:42:12;;;;;;;4.13;1.00;;;;;;;35.54;29.36;98010.31;4990092;28;20120;-70
2021/06/21 10:44:45;;;;;;;7.77;1.00;;;;;;;35.91;30.21;98009.44;4989135;28;20125;-70
2021/06/21 10:47:30;;;;;;;3.60;1.00;;;;;;;36.82;30.76;98003.09;4989730;28;20103;-70
2021/06/21 10:50:05;;;;;;;2.42;0.80;;;;;;;35.10;32.36;98008.31;4990481;28;20069;-69
2021/06/21 10:52:36;;;;;;;3.60;0.80;;;;;;;36.33;30.91;98002.47;4990347;28;20377;-72
2021/06/21 10:55:20;;;;;;;3.25;0.93;;;;;;;35.26;32.16;98010.06;4990200;28;20424;-71
2021/06/21 10:57:49;;;;;;;3.90;0.98;;;;;;;36.49;29.90;97990.06;4989741;28;20081;-72
2021/06/21 11:00:16;;;;;;;3.03;1.00;;;;;;;37.83;27.61;97987.09;4982285;28;20108;-73
2021/06/21 11:02:41;;;;;;;4.80;1.15;;;;;;;37.80;27.89;98002.81;4995135;28;20084;-72
2021/06/21 11:05:08;;;;;;;2.33;0.80;;;;;;;38.98;27.61;98005.31;4988128;28;20038;-72
2021/06/21 11:07:33;;;;;;;4.68;0.77;;;;;;;38.12;26.71;98005.66;4989293;28;20105;-72
2021/06/21 11:09:59;;;;;;;3.05;0.82;;;;;;;37.12;28.87;98011.25;4990113;28;20317;-71
2021/06/21 11:12:31;;;;;;;2.25;0.80;;;;;;;35.46;30.05;98008.66;4993927;28;20061;-72
2021/06/21 11:15:06;;;;;;;2.20;0.85;;;;;;;35.02;30.46;98000.97;4989274;28;20080;-72
2021/06/21 11:17:53;;;;;;;4.93;1.00;;;;;;;34.30;30.96;98013.34;4991052;28;20388;-71
2021/06/21 11:20:41;;;;;;;4.05;0.70;;;;;;;35.24;29.25;98010.47;4991306;28;20513;-72
2021/06/21 11:23:12;;;;;;;4.93;0.90;;;;;;;35.30;29.49;98011.72;4990795;28;20030;-71
2021/06/21 11:25:41;;;;;;;3.17;0.80;;;;;;;37.47;27.38;98009.69;4989779;28;20088;-70
2021/06/21 11:28:27;;;;;;;1.58;0.50;;;;;;;37.56;26.53;98001.63;4989961;28;20109;-73
2021/06/21 11:30:52;;;;;;;2.45;0.90;;;;;;;38.12;26.10;98005.66;4990487;28;20038;-74
2021/06/21 11:33:17;;;;;;;2.78;0.60;;;;;;;38.31;26.38;98010.03;4987297;28;20034;-71
2021/06/21 11:35:52;;;;;;;1.43;0.70;;;;;;;36.66;28.67;98011.09;4989058;28;20030;-72
2021/06/21 11:38:28;;;;;;;3.53;1.05;;;;;;;37.06;27.99;98015.66;4989988;28;20293;-74